Big Bear Station Historical Data
Daily Summary for November 4, 2017 Units:  English    Metric   Both
« Previous Day
Next Day »
Daily Weekly Monthly Yearly Custom
  High: Low: Average:
Temperature: 53.8 °F 38.7 °F 44.2 °F
Dew Point: 39.2 °F 22.1 °F 35.6 °F
Humidity: 93 % 47 % 73 %
Wind Speed: 8.3 mph 0.0 mph 2 mph
Wind Gust: -999.0 mph - -
Wind:- - West
Pressure: 23.48 in 23.43 in -
Precipitation: 0.00 in    
Historical Graphs
 
 
Tabular Data for November 4, 2017
Time Temperature Dew Point Pressure Wind Wind Speed Wind Gust Humidity Rainfall Rate (Hourly)
00:10 43.7 °F 32.7 °F 23.47 in Calm   -999.0 mph 65 % 0 in
00:25 43.3 °F 32.3 °F 23.47 in NNW 1.7 mph -999.0 mph 65 % 0 in
00:40 43.0 °F 32.0 °F 23.47 in WNW 2.7 mph -999.0 mph 65 % 0 in
00:56 42.6 °F 31.3 °F 23.47 in Calm   -999.0 mph 64 % 0 in
01:11 41.9 °F 31.7 °F 23.47 in Calm   -999.0 mph 67 % 0 in
01:26 41.9 °F 34.2 °F 23.46 in Calm   -999.0 mph 74 % 0 in
01:41 42.4 °F 35.4 °F 23.46 in NW 2.7 mph -999.0 mph 76 % 0 in
01:57 43.2 °F 36.1 °F 23.46 in Calm   -999.0 mph 76 % 0 in
02:12 43.3 °F 36.2 °F 23.46 in Calm   -999.0 mph 76 % 0 in
02:28 43.5 °F 36.4 °F 23.46 in NNW 1.1 mph -999.0 mph 76 % 0 in
02:58 42.4 °F 35.0 °F 23.46 in Calm   -999.0 mph 75 % 0 in
03:13 42.8 °F 36.4 °F 23.45 in SSE 1.1 mph -999.0 mph 78 % 0 in
03:28 42.8 °F 36.7 °F 23.45 in Calm   -999.0 mph 79 % 0 in
03:44 43.2 °F 37.1 °F 23.45 in Calm   -999.0 mph 79 % 0 in
04:14 43.3 °F 37.2 °F 23.44 in Calm   -999.0 mph 79 % 0 in
04:29 43.7 °F 37.6 °F 23.44 in Calm   -999.0 mph 79 % 0 in
04:44 43.0 °F 37.3 °F 23.44 in Calm   -999.0 mph 80 % 0 in
05:00 42.6 °F 37.2 °F 23.44 in Calm   -999.0 mph 81 % 0 in
05:15 42.3 °F 36.9 °F 23.44 in Calm   -999.0 mph 81 % 0 in
05:30 42.1 °F 37.0 °F 23.43 in WNW 1.1 mph -999.0 mph 82 % 0 in
05:45 42.1 °F 34.7 °F 23.43 in Calm   -999.0 mph 75 % 0 in
06:00 42.1 °F 31.9 °F 23.44 in East 2.2 mph -999.0 mph 67 % 0 in
06:16 41.5 °F 27.8 °F 23.44 in Calm   -999.0 mph 58 % 0 in
06:31 41.2 °F 24.9 °F 23.44 in Calm   -999.0 mph 52 % 0 in
06:46 41.0 °F 22.8 °F 23.44 in Calm   -999.0 mph 48 % 0 in
07:01 40.8 °F 23.1 °F 23.44 in SSW 2.2 mph -999.0 mph 49 % 0 in
07:17 40.8 °F 22.1 °F 23.44 in WNW 1.7 mph -999.0 mph 47 % 0 in
07:32 40.8 °F 22.1 °F 23.44 in SW 1.1 mph -999.0 mph 47 % 0 in
07:47 40.3 °F 22.6 °F 23.45 in Calm   -999.0 mph 49 % 0 in
08:02 40.1 °F 24.8 °F 23.45 in NW 2.7 mph -999.0 mph 54 % 0 in
08:17 40.8 °F 25.0 °F 23.45 in NNW 1.1 mph -999.0 mph 53 % 0 in
08:33 41.7 °F 29.2 °F 23.45 in WNW 1.1 mph -999.0 mph 61 % 0 in
08:48 43.7 °F 32.3 °F 23.46 in ENE 2.7 mph -999.0 mph 64 % 0 in
09:03 44.8 °F 35.2 °F 23.46 in NW 4.2 mph -999.0 mph 69 % 0 in
09:18 45.5 °F 34.4 °F 23.46 in WNW 1.7 mph -999.0 mph 65 % 0 in
09:33 46.4 °F 35.3 °F 23.46 in South 1.1 mph -999.0 mph 65 % 0 in
09:49 46.8 °F 36.0 °F 23.46 in West 1.7 mph -999.0 mph 66 % 0 in
10:04 47.1 °F 36.7 °F 23.46 in NW 1.1 mph -999.0 mph 67 % 0 in
10:19 47.7 °F 36.5 °F 23.46 in West 1.1 mph -999.0 mph 65 % 0 in
10:35 48.4 °F 37.6 °F 23.47 in NW 8.3 mph -999.0 mph 66 % 0 in
10:50 49.3 °F 37.2 °F 23.47 in WNW 1.1 mph -999.0 mph 63 % 0 in
11:05 50.9 °F 38.8 °F 23.47 in West 4.7 mph -999.0 mph 63 % 0 in
11:20 50.2 °F 38.1 °F 23.47 in West 2.2 mph -999.0 mph 63 % 0 in
11:35 50.5 °F 38.0 °F 23.47 in Calm   -999.0 mph 62 % 0 in
11:51 50.4 °F 37.9 °F 23.47 in North 4.2 mph -999.0 mph 62 % 0 in
12:06 52.2 °F 38.3 °F 23.46 in NW 4.2 mph -999.0 mph 59 % 0 in
12:22 52.0 °F 38.1 °F 23.46 in WSW 1.1 mph -999.0 mph 59 % 0 in
12:37 51.8 °F 37.9 °F 23.45 in WNW 5.3 mph -999.0 mph 59 % 0 in
12:52 52.0 °F 38.1 °F 23.45 in North 6.3 mph -999.0 mph 59 % 0 in
13:08 53.1 °F 38.3 °F 23.45 in NNE 6.3 mph -999.0 mph 57 % 0 in
13:23 52.9 °F 38.1 °F 23.44 in NNW 2.7 mph -999.0 mph 57 % 0 in
13:38 53.8 °F 38.5 °F 23.44 in NW 5.3 mph -999.0 mph 56 % 0 in
13:53 53.4 °F 38.1 °F 23.43 in West 2.7 mph -999.0 mph 56 % 0 in
14:08 52.0 °F 38.5 °F 23.43 in NW 2.7 mph -999.0 mph 60 % 0 in
14:24 51.4 °F 39.2 °F 23.43 in NNW 5.3 mph -999.0 mph 63 % 0 in
14:39 50.9 °F 38.8 °F 23.43 in NNW 5.3 mph -999.0 mph 63 % 0 in
14:54 50.4 °F 38.7 °F 23.43 in NNE 4.7 mph -999.0 mph 64 % 0 in
15:10 50.0 °F 38.7 °F 23.43 in NW 5.8 mph -999.0 mph 65 % 0 in
15:25 48.7 °F 38.2 °F 23.43 in West 3.2 mph -999.0 mph 67 % 0 in
15:40 48.6 °F 38.5 °F 23.44 in NW 3.2 mph -999.0 mph 68 % 0 in
15:55 48.6 °F 38.5 °F 23.44 in NNW 2.2 mph -999.0 mph 68 % 0 in
16:11 48.2 °F 37.8 °F 23.44 in SSW 1.7 mph -999.0 mph 67 % 0 in
16:26 47.1 °F 38.5 °F 23.44 in NNW 3.2 mph -999.0 mph 72 % 0 in
16:41 46.2 °F 38.7 °F 23.44 in NW 4.7 mph -999.0 mph 75 % 0 in
16:56 44.8 °F 38.0 °F 23.44 in WNW 4.2 mph -999.0 mph 77 % 0 in
17:12 44.1 °F 38.6 °F 23.43 in WSW 1.7 mph -999.0 mph 81 % 0 in
17:27 43.2 °F 38.4 °F 23.44 in SSE 2.7 mph -999.0 mph 83 % 0 in
17:43 42.3 °F 38.4 °F 23.44 in NW 2.2 mph -999.0 mph 86 % 0 in
17:58 41.4 °F 37.8 °F 23.44 in West 1.7 mph -999.0 mph 87 % 0 in
18:13 40.8 °F 37.8 °F 23.44 in West 2.2 mph -999.0 mph 89 % 0 in
18:28 40.1 °F 37.7 °F 23.45 in NNW 6.3 mph -999.0 mph 91 % 0 in
18:43 39.9 °F 37.8 °F 23.45 in NNW 3.7 mph -999.0 mph 92 % 0 in
18:59 39.6 °F 37.5 °F 23.45 in NNW 3.2 mph -999.0 mph 92 % 0 in
19:14 39.7 °F 37.6 °F 23.46 in West 4.2 mph -999.0 mph 92 % 0 in
19:29 39.9 °F 37.8 °F 23.46 in Calm   -999.0 mph 92 % 0 in
19:44 39.7 °F 37.6 °F 23.46 in North 3.2 mph -999.0 mph 92 % 0 in
19:59 39.6 °F 37.5 °F 23.46 in Calm   -999.0 mph 92 % 0 in
20:30 39.2 °F 37.1 °F 23.46 in Calm   -999.0 mph 92 % 0 in
20:45 39.2 °F 37.1 °F 23.46 in Calm   -999.0 mph 92 % 0 in
21:00 39.0 °F 37.1 °F 23.46 in WNW 2.2 mph -999.0 mph 93 % 0 in
21:16 38.8 °F 37.0 °F 23.46 in East 1.1 mph -999.0 mph 93 % 0 in
21:31 38.8 °F 37.0 °F 23.46 in SSW 2.2 mph -999.0 mph 93 % 0 in
21:46 38.8 °F 37.0 °F 23.47 in Calm   -999.0 mph 93 % 0 in
22:01 38.7 °F 36.9 °F 23.47 in Calm   -999.0 mph 93 % 0 in
22:16 38.8 °F 37.0 °F 23.47 in Calm   -999.0 mph 93 % 0 in
22:32 39.6 °F 37.7 °F 23.47 in Calm   -999.0 mph 93 % 0 in
22:47 39.9 °F 38.0 °F 23.48 in Calm   -999.0 mph 93 % 0 in
23:03 39.9 °F 38.0 °F 23.47 in North 5.3 mph -999.0 mph 93 % 0 in
23:18 39.9 °F 37.8 °F 23.47 in NW 1.7 mph -999.0 mph 92 % 0 in
23:33 39.7 °F 37.6 °F 23.47 in NNW 1.1 mph -999.0 mph 92 % 0 in
23:48 39.4 °F 37.3 °F 23.47 in Calm   -999.0 mph 92 % 0 in
Big Bear CA Weather
Compliments of Weather Underground - 1.5 mb